Time;durP1;ratioP1;P1;durP2;ratioP2;P2;SDS_P1;SDS_P2;PMS_P1;PMS_P2;Temp;Humidity;BMP_temperature;BMP_pressure;BME280_temperature;BME280_humidity;BME280_pressure;Samples;Min_cycle;Max_cycle;Signal;HPM_P1;HPM_P2
2021/01/12 00:00:11;;;;;;;0.50;0.50;;;;;;;-7.00;83.11;99665.75;4874530;29;20485;-82
2021/01/12 00:03:00;;;;;;;0.50;0.50;;;;;;;-6.99;83.18;99667.38;4874788;29;20951;-82
2021/01/12 00:05:46;;;;;;;0.40;0.40;;;;;;;-7.04;83.42;99659.06;4875589;29;20450;-82
2021/01/12 00:08:26;;;;;;;0.50;0.50;;;;;;;-6.99;83.29;99675.19;4872741;29;20541;-81
2021/01/12 00:11:25;;;;;;;0.60;0.60;;;;;;;-7.02;83.47;99675.41;4902862;29;20487;-81
2021/01/12 00:17:26;;;;;;;0.50;0.50;;;;;;;-7.14;83.38;99661.47;4891747;29;20439;-81
2021/01/12 00:20:16;;;;;;;0.50;0.50;;;;;;;-7.17;83.33;99653.88;4855144;29;20427;-81
2021/01/12 00:22:51;;;;;;;0.40;0.40;;;;;;;-7.16;83.26;99662.53;4852406;29;20538;-81
2021/01/12 00:25:27;;;;;;;0.50;0.50;;;;;;;-7.27;83.13;99649.41;4837609;29;20451;-81
2021/01/12 00:28:10;;;;;;;0.60;0.60;;;;;;;-7.29;82.89;99659.97;4853315;29;20459;-81
2021/01/12 00:30:45;;;;;;;0.50;0.50;;;;;;;-7.17;82.92;99679.09;4867228;29;20455;-81
2021/01/12 00:33:23;;;;;;;0.50;0.50;;;;;;;-7.33;82.75;99662.88;4852354;29;20459;-81
2021/01/12 00:36:09;;;;;;;0.50;0.50;;;;;;;-7.32;83.35;99665.34;4895845;29;20523;-80
2021/01/12 00:38:46;;;;;;;0.50;0.50;;;;;;;-7.24;82.83;99677.84;4881868;29;20458;-80
2021/01/12 00:41:20;;;;;;;0.50;0.50;;;;;;;-7.36;82.89;99660.47;4849666;29;20487;-81
2021/01/12 00:43:55;;;;;;;0.60;0.60;;;;;;;-7.40;82.49;99659.84;4859755;29;21014;-81
2021/01/12 00:46:31;;;;;;;0.50;0.50;;;;;;;-7.35;82.57;99682.97;4848131;29;20853;-81
2021/01/12 00:49:07;;;;;;;0.40;0.40;;;;;;;-7.49;82.52;99655.28;4848752;29;20478;-81
2021/01/12 00:51:43;;;;;;;0.50;0.50;;;;;;;-7.42;82.78;99674.75;4833207;29;20557;-81
2021/01/12 00:54:27;;;;;;;0.50;0.50;;;;;;;-7.49;82.30;99651.84;4848503;29;20475;-81
2021/01/12 00:57:02;;;;;;;0.60;0.60;;;;;;;-7.43;82.32;99667.88;4833533;29;20475;-81
2021/01/12 00:59:45;;;;;;;0.50;0.50;;;;;;;-7.48;81.66;99663.94;4848252;29;20487;-81
2021/01/12 01:02:21;;;;;;;0.50;0.50;;;;;;;-7.55;81.75;99676.50;4847906;29;20475;-81
2021/01/12 01:05:00;;;;;;;0.40;0.40;;;;;;;-7.57;82.17;99689.66;4863396;29;20486;-81
2021/01/12 01:07:40;;;;;;;0.50;0.50;;;;;;;-7.60;82.51;99684.63;4851169;29;20451;-80
2021/01/12 01:10:16;;;;;;;0.50;0.50;;;;;;;-7.68;82.75;99660.91;4864564;29;20537;-81
2021/01/12 01:12:49;;;;;;;0.50;0.50;;;;;;;-7.65;82.96;99672.91;4864520;29;20530;-81
2021/01/12 01:15:29;;;;;;;0.50;0.50;;;;;;;-7.65;82.66;99672.91;4894554;29;20478;-80
2021/01/12 01:18:08;;;;;;;0.50;0.50;;;;;;;-7.79;82.68;99649.59;4879755;29;20494;-80
2021/01/12 01:20:50;;;;;;;0.50;0.50;;;;;;;-7.71;82.31;99666.34;4851119;29;20482;-81
2021/01/12 01:23:24;;;;;;;0.50;0.50;;;;;;;-7.92;82.42;99636.53;4848546;29;20464;-80
2021/01/12 01:26:01;;;;;;;0.50;0.50;;;;;;;-7.88;82.34;99653.59;4878564;29;20451;-81
2021/01/12 01:28:34;;;;;;;0.60;0.60;;;;;;;-7.97;82.27;99636.03;4862811;29;20532;-81
2021/01/12 01:31:14;;;;;;;0.60;0.60;;;;;;;-7.85;82.26;99665.59;4878074;29;20470;-80
2021/01/12 01:33:50;;;;;;;0.50;0.50;;;;;;;-7.89;82.24;99651.97;4862173;29;20494;-80
2021/01/12 01:36:30;;;;;;;0.50;0.50;;;;;;;-7.95;81.92;99649.75;4863371;29;20494;-80
2021/01/12 01:39:06;;;;;;;0.50;0.50;;;;;;;-8.03;82.54;99637.28;4857853;29;20488;-81
2021/01/12 01:41:45;;;;;;;0.60;0.60;;;;;;;-7.95;82.36;99641.97;4856958;29;20458;-80
2021/01/12 01:44:22;;;;;;;0.40;0.40;;;;;;;-7.99;82.66;99629.28;4834790;29;20465;-80
2021/01/12 01:46:58;;;;;;;0.53;0.53;;;;;;;-7.97;82.74;99648.19;4861836;29;20481;-80
2021/01/12 01:49:33;;;;;;;0.50;0.50;;;;;;;-7.93;82.65;99660.88;4860660;29;20486;-79
2021/01/12 01:52:07;;;;;;;0.50;0.50;;;;;;;-8.05;82.50;99635.72;4848635;29;20450;-80
2021/01/12 01:54:45;;;;;;;0.60;0.60;;;;;;;-7.97;82.41;99653.38;4858104;29;20511;-80
2021/01/12 01:57:20;;;;;;;0.53;0.53;;;;;;;-8.06;82.31;99641.84;4846272;29;20438;-81
2021/01/12 01:59:57;;;;;;;0.50;0.50;;;;;;;-8.16;82.22;99620.81;4844784;29;20494;-80
2021/01/12 02:02:54;;;;;;;0.50;0.50;;;;;;;-8.14;81.90;99646.72;4861175;29;20484;-80
2021/01/12 02:05:32;;;;;;;0.63;0.63;;;;;;;-8.22;82.32;99623.84;4830764;29;20455;-80
2021/01/12 02:08:44;;;;;;;0.50;0.50;;;;;;;-8.23;82.47;99623.94;4844602;29;20458;-81
2021/01/12 02:11:23;;;;;;;0.40;0.40;;;;;;;-8.27;82.58;99602.53;4844539;29;20459;-80
2021/01/12 02:14:05;;;;;;;0.50;0.50;;;;;;;-8.28;82.46;99595.66;4869457;29;20818;-80
2021/01/12 02:16:40;;;;;;;0.50;0.50;;;;;;;-8.19;82.11;99628.81;4844217;29;20447;-80
2021/01/12 02:19:21;;;;;;;0.50;0.50;;;;;;;-8.25;82.36;99608.44;4875663;29;20447;-80
2021/01/12 02:22:07;;;;;;;0.60;0.60;;;;;;;-8.33;82.62;99586.53;4873737;29;20514;-80
2021/01/12 02:24:40;;;;;;;0.50;0.50;;;;;;;-8.32;83.19;99591.63;4860976;29;20901;-80
2021/01/12 02:27:26;;;;;;;0.50;0.50;;;;;;;-8.23;83.22;99609.19;4863998;29;20451;-80
2021/01/12 02:30:04;;;;;;;0.60;0.60;;;;;;;-8.23;83.30;99609.19;4891875;29;20483;-80
2021/01/12 02:32:42;;;;;;;0.50;0.50;;;;;;;-8.35;83.00;99588.41;4877086;29;20443;-80
2021/01/12 02:35:20;;;;;;;0.60;0.60;;;;;;;-8.28;83.22;99592.22;4907747;29;20482;-80
2021/01/12 02:37:57;;;;;;;0.57;0.57;;;;;;;-8.33;83.04;99576.97;4891462;29;20519;-80
2021/01/12 02:40:33;;;;;;;0.50;0.50;;;;;;;-8.25;82.94;99600.63;4895452;29;20458;-80
2021/01/12 02:43:13;;;;;;;0.50;0.50;;;;;;;-8.41;82.93;99579.25;4862342;29;20466;-79
2021/01/12 02:45:48;;;;;;;0.50;0.50;;;;;;;-8.45;83.38;99566.56;4877393;29;20551;-81
2021/01/12 02:48:25;;;;;;;0.60;0.60;;;;;;;-8.48;82.65;99563.22;4862450;29;20505;-81
2021/01/12 02:50:57;;;;;;;0.50;0.50;;;;;;;-8.36;82.93;99582.38;4852840;29;20451;-80
2021/01/12 02:53:35;;;;;;;0.60;0.60;;;;;;;-8.48;82.63;99562.38;4873296;29;20795;-80
2021/01/12 02:56:12;;;;;;;0.60;0.60;;;;;;;-8.49;82.74;99566.75;4842999;29;20534;-80
2021/01/12 02:58:52;;;;;;;0.50;0.50;;;;;;;-8.47;83.26;99564.06;4844752;29;20459;-80
2021/01/12 03:01:29;;;;;;;0.50;0.50;;;;;;;-8.50;82.72;99549.50;4869617;29;20442;-80
2021/01/12 03:04:03;;;;;;;0.50;0.50;;;;;;;-8.49;83.12;99547.75;4875325;29;20439;-80
2021/01/12 03:06:38;;;;;;;0.50;0.50;;;;;;;-8.43;82.94;99573.31;4862043;29;20450;-80
2021/01/12 03:09:13;;;;;;;0.57;0.57;;;;;;;-8.60;82.91;99532.88;4877225;29;20454;-80
2021/01/12 03:11:57;;;;;;;0.50;0.50;;;;;;;-8.44;83.10;99574.22;4863773;29;20447;-80
2021/01/12 03:14:32;;;;;;;0.60;0.60;;;;;;;-8.60;82.96;99532.03;4841742;29;20518;-80
2021/01/12 03:17:12;;;;;;;0.60;0.60;;;;;;;-8.56;82.97;99555.09;4872820;29;20514;-80
2021/01/12 03:19:47;;;;;;;0.60;0.60;;;;;;;-8.60;83.13;99532.88;4889276;29;20493;-80
2021/01/12 03:22:24;;;;;;;0.50;0.50;;;;;;;-8.47;83.03;99562.28;4861683;29;20454;-81
2021/01/12 03:25:02;;;;;;;0.50;0.50;;;;;;;-8.54;82.94;99555.81;4846042;29;20493;-80
2021/01/12 03:27:40;;;;;;;0.50;0.50;;;;;;;-8.63;82.85;99530.44;4843044;29;20487;-80
2021/01/12 03:30:18;;;;;;;0.47;0.47;;;;;;;-8.71;82.92;99527.53;4856303;29;20451;-80
2021/01/12 03:32:53;;;;;;;0.50;0.50;;;;;;;-8.64;82.33;99533.16;4844282;29;20454;-80
2021/01/12 03:35:31;;;;;;;0.50;0.50;;;;;;;-8.68;82.74;99526.53;4874588;29;20474;-80
2021/01/12 03:38:07;;;;;;;0.60;0.60;;;;;;;-8.68;82.80;99522.16;4859737;29;20450;-80
2021/01/12 03:40:46;;;;;;;0.40;0.40;;;;;;;-8.58;82.74;99553.53;4875063;29;20447;-80
2021/01/12 03:43:22;;;;;;;0.50;0.50;;;;;;;-8.68;82.81;99529.13;4858885;29;20454;-80
2021/01/12 03:46:03;;;;;;;0.50;0.50;;;;;;;-8.71;82.92;99530.13;4872082;29;20473;-81
2021/01/12 03:48:35;;;;;;;0.60;0.60;;;;;;;-8.72;83.09;99507.69;4855396;29;20466;-80
2021/01/12 03:51:16;;;;;;;0.50;0.50;;;;;;;-8.73;82.81;99518.19;4830543;29;20467;-80
2021/01/12 03:53:50;;;;;;;0.50;0.50;;;;;;;-8.77;82.61;99496.78;4873208;29;20446;-80
2021/01/12 03:56:24;;;;;;;0.53;0.53;;;;;;;-8.76;82.53;99500.19;4852207;29;20459;-80
2021/01/12 03:59:00;;;;;;;0.60;0.60;;;;;;;-8.80;82.27;99490.94;4853014;29;20531;-79
2021/01/12 04:01:45;;;;;;;0.50;0.50;;;;;;;-8.75;82.44;99499.28;4860995;29;20450;-80
2021/01/12 04:04:20;;;;;;;0.60;0.60;;;;;;;-8.82;82.64;99485.88;4873225;29;20438;-80
2021/01/12 04:06:58;;;;;;;0.50;0.50;;;;;;;-8.78;82.66;99481.31;4852564;29;20447;-80
2021/01/12 04:09:37;;;;;;;0.50;0.50;;;;;;;-8.81;82.56;99476.31;4839263;29;20455;-80
2021/01/12 04:12:22;;;;;;;0.50;0.50;;;;;;;-8.83;82.50;99473.81;4848915;29;20483;-80
2021/01/12 04:14:58;;;;;;;0.50;0.50;;;;;;;-8.86;82.67;99473.22;4856901;29;20514;-80
2021/01/12 04:17:36;;;;;;;0.50;0.50;;;;;;;-8.77;82.58;99501.97;4847687;29;20534;-80
2021/01/12 04:20:14;;;;;;;0.50;0.50;;;;;;;-8.83;82.30;99491.16;4825295;29;20827;-81
2021/01/12 04:22:51;;;;;;;0.50;0.50;;;;;;;-8.82;82.69;99488.47;4851644;29;20446;-80
2021/01/12 04:25:25;;;;;;;0.50;0.50;;;;;;;-8.87;82.83;99481.91;4858388;29;20435;-80
2021/01/12 04:27:59;;;;;;;0.50;0.50;;;;;;;-8.93;82.69;99471.00;4842427;29;20478;-80
2021/01/12 04:30:34;;;;;;;0.60;0.60;;;;;;;-8.85;82.40;99480.03;4872556;29;20443;-80
2021/01/12 04:33:16;;;;;;;0.60;0.60;;;;;;;-8.89;82.27;99474.22;4843770;29;20451;-80
2021/01/12 04:35:53;;;;;;;0.60;0.60;;;;;;;-8.94;82.52;99476.28;4873244;29;20477;-80
2021/01/12 04:38:30;;;;;;;0.50;0.50;;;;;;;-8.92;82.57;99469.25;4859013;29;20525;-80
2021/01/12 04:41:06;;;;;;;0.50;0.50;;;;;;;-8.96;82.41;99471.19;4857704;29;20454;-80
2021/01/12 04:43:44;;;;;;;0.60;0.60;;;;;;;-9.07;82.53;99447.72;4844017;29;20482;-80
2021/01/12 04:46:21;;;;;;;0.50;0.50;;;;;;;-8.95;82.51;99457.28;4858650;29;20447;-80
2021/01/12 04:48:58;;;;;;;0.53;0.53;;;;;;;-8.94;82.61;99458.94;4854925;29;20466;-80
2021/01/12 04:51:38;;;;;;;0.50;0.50;;;;;;;-9.03;83.08;99443.97;4841157;29;20452;-80
2021/01/12 04:54:14;;;;;;;0.43;0.43;;;;;;;-9.03;82.44;99448.34;4868742;29;20535;-81
2021/01/12 04:56:47;;;;;;;0.50;0.50;;;;;;;-8.89;82.14;99471.63;4824479;29;20459;-80
2021/01/12 04:59:35;;;;;;;0.60;0.60;;;;;;;-9.05;82.35;99443.25;4854280;29;20455;-80
2021/01/12 05:02:13;;;;;;;0.50;0.50;;;;;;;-8.99;82.31;99455.81;4856791;29;20451;-80
2021/01/12 05:04:50;;;;;;;0.50;0.50;;;;;;;-8.95;82.75;99456.44;4857935;29;20458;-80
2021/01/12 05:07:22;;;;;;;0.50;0.50;;;;;;;-8.97;82.55;99455.72;4858433;29;20465;-80
2021/01/12 05:10:00;;;;;;;0.60;0.60;;;;;;;-9.14;82.92;99417.88;4873324;29;20817;-80
2021/01/12 05:12:35;;;;;;;0.60;0.60;;;;;;;-9.05;82.93;99422.47;4842989;29;20467;-80
2021/01/12 05:15:11;;;;;;;0.60;0.60;;;;;;;-9.09;82.54;99413.22;4859489;29;20542;-80
2021/01/12 05:17:53;;;;;;;0.60;0.60;;;;;;;-9.05;83.13;99413.88;4859282;29;20497;-80
2021/01/12 05:20:28;;;;;;;0.60;0.60;;;;;;;-8.92;83.34;99435.50;4858731;29;20466;-79
2021/01/12 05:23:13;;;;;;;0.60;0.60;;;;;;;-8.93;83.60;99415.66;4859445;29;20458;-80
2021/01/12 05:25:52;;;;;;;0.50;0.50;;;;;;;-8.84;83.84;99432.38;4874273;29;20529;-81
2021/01/12 05:28:26;;;;;;;0.50;0.50;;;;;;;-8.93;83.59;99419.09;4847644;29;20509;-80
2021/01/12 05:31:08;;;;;;;0.60;0.60;;;;;;;-8.91;83.29;99426.75;4864098;29;20458;-80
2021/01/12 05:33:50;;;;;;;0.50;0.50;;;;;;;-8.82;84.01;99441.75;4863791;29;20451;-80
2021/01/12 05:36:30;;;;;;;0.50;0.50;;;;;;;-8.83;84.03;99436.63;4877622;29;21025;-80
2021/01/12 05:39:10;;;;;;;0.60;0.60;;;;;;;-8.96;83.75;99403.69;4862513;29;20561;-80
2021/01/12 05:41:52;;;;;;;0.60;0.60;;;;;;;-8.82;83.67;99428.75;4865498;29;20454;-81
2021/01/12 05:44:30;;;;;;;0.60;0.60;;;;;;;-8.80;83.10;99437.25;4862152;29;20474;-80
2021/01/12 05:47:07;;;;;;;0.50;0.50;;;;;;;-8.89;83.96;99409.31;4860370;29;20963;-80
2021/01/12 05:49:44;;;;;;;0.60;0.60;;;;;;;-8.89;83.78;99406.72;4846190;29;20956;-80
2021/01/12 05:52:25;;;;;;;0.50;0.50;;;;;;;-8.77;83.88;99420.66;4850668;29;20475;-80
2021/01/12 05:55:14;;;;;;;0.50;0.50;;;;;;;-8.86;83.94;99393.53;4864443;29;20490;-80
2021/01/12 05:57:53;;;;;;;0.50;0.50;;;;;;;-8.77;83.46;99416.28;4878261;29;20533;-80
2021/01/12 06:00:33;;;;;;;0.60;0.60;;;;;;;-8.71;83.29;99434.03;4879193;29;20458;-81
2021/01/12 06:03:10;;;;;;;0.50;0.50;;;;;;;-8.83;83.35;99403.72;4879016;29;20450;-81
2021/01/12 06:05:49;;;;;;;0.50;0.50;;;;;;;-8.70;83.23;99416.69;4850131;29;20465;-80
2021/01/12 06:08:27;;;;;;;0.60;0.60;;;;;;;-8.74;83.43;99402.25;4849982;29;20482;-81
2021/01/12 06:11:10;;;;;;;0.60;0.60;;;;;;;-8.71;82.72;99409.84;4865845;29;20454;-81
2021/01/12 06:13:57;;;;;;;0.50;0.50;;;;;;;-8.79;82.70;99394.78;4887546;29;20518;-81
2021/01/12 06:16:36;;;;;;;0.50;0.50;;;;;;;-8.84;82.75;99394.25;4867278;29;20442;-80
2021/01/12 06:19:13;;;;;;;0.50;0.50;;;;;;;-8.78;82.84;99409.44;4881268;29;20472;-81
2021/01/12 06:22:13;;;;;;;0.50;0.50;;;;;;;-8.64;83.27;99422.31;4866765;29;20522;-81
2021/01/12 06:25:03;;;;;;;0.50;0.50;;;;;;;-8.63;83.61;99415.38;4867459;29;20447;-81
2021/01/12 06:27:45;;;;;;;0.50;0.50;;;;;;;-8.69;83.31;99398.44;4868756;29;20451;-81
2021/01/12 06:30:30;;;;;;;0.50;0.50;;;;;;;-8.53;83.55;99411.19;4883450;29;20461;-81
2021/01/12 06:33:08;;;;;;;0.50;0.50;;;;;;;-8.48;83.55;99416.88;4882703;29;20546;-81
2021/01/12 06:35:49;;;;;;;0.50;0.50;;;;;;;-8.40;83.84;99419.81;4855174;29;20478;-81
2021/01/12 06:38:32;;;;;;;0.50;0.50;;;;;;;-8.31;83.92;99421.78;4871473;29;20442;-81
2021/01/12 06:41:14;;;;;;;0.50;0.50;;;;;;;-8.23;84.02;99413.41;4885822;29;20423;-81
2021/01/12 06:44:02;;;;;;;0.60;0.60;;;;;;;-8.17;83.77;99402.59;4872198;29;20458;-81
2021/01/12 06:46:38;;;;;;;0.57;0.57;;;;;;;-8.11;84.00;99409.94;4885285;29;20522;-81
2021/01/12 06:49:16;;;;;;;0.50;0.50;;;;;;;-8.05;83.93;99414.72;4857934;29;20494;-81
2021/01/12 06:52:04;;;;;;;0.50;0.50;;;;;;;-7.98;84.20;99410.75;4886557;29;20447;-80
2021/01/12 06:54:50;;;;;;;0.50;0.50;;;;;;;-7.91;84.58;99406.78;4887565;29;20485;-81
2021/01/12 06:57:31;;;;;;;0.50;0.50;;;;;;;-7.98;83.90;99381.31;4859236;29;20485;-82
2021/01/12 07:00:18;;;;;;;0.50;0.50;;;;;;;-7.74;84.24;99402.97;4818705;29;20461;-80
2021/01/12 07:03:01;;;;;;;0.50;0.50;;;;;;;-7.76;83.81;99381.44;4835014;29;20437;-81
2021/01/12 07:05:48;;;;;;;0.50;0.50;;;;;;;-7.61;83.93;99393.34;4832791;29;20458;-82
2021/01/12 07:08:42;;;;;;;0.50;0.50;;;;;;;-7.66;83.58;99367.66;4824471;29;20425;-82
2021/01/12 07:11:38;;;;;;;0.50;0.50;;;;;;;-7.56;83.69;99368.63;4848053;29;20465;-81
2021/01/12 07:14:33;;;;;;;0.60;0.60;;;;;;;-7.42;83.48;99372.88;4849045;29;20513;-82
2021/01/12 07:17:29;;;;;;;0.50;0.50;;;;;;;-7.26;83.42;99394.19;4848894;29;20417;-82
2021/01/12 07:20:42;;;;;;;0.60;0.60;;;;;;;-7.16;83.52;99396.94;4833987;29;20461;-82
2021/01/12 07:23:40;;;;;;;0.50;0.50;;;;;;;-7.19;83.63;99366.78;4833180;29;20469;-83
2021/01/12 07:26:18;;;;;;;0.50;0.50;;;;;;;-7.03;83.72;99371.66;4833019;29;20449;-82
2021/01/12 07:29:20;;;;;;;0.50;0.50;;;;;;;-6.94;83.46;99375.34;4848316;29;20444;-82
2021/01/12 07:32:48;;;;;;;0.40;0.40;;;;;;;-6.87;82.50;99377.38;4832466;29;20442;-82
2021/01/12 07:35:49;;;;;;;0.40;0.40;;;;;;;-6.74;83.19;99396.34;4833057;29;20552;-82
2021/01/12 07:43:14;;;;;;;0.50;0.50;;;;;;;-6.57;83.08;99379.41;4848167;29;20446;-83
2021/01/12 07:46:35;;;;;;;0.60;0.60;;;;;;;-6.52;83.44;99369.47;4848344;29;20436;-84
2021/01/12 07:49:53;;;;;;;0.60;0.60;;;;;;;-6.47;83.27;99356.91;4832479;29;20453;-83
2021/01/12 07:53:08;;;;;;;0.50;0.50;;;;;;;-6.30;83.19;99372.06;4846130;29;20467;-84
2021/01/12 07:56:30;;;;;;;0.50;0.50;;;;;;;-6.20;82.38;99368.75;4836398;29;20530;-84
2021/01/12 08:00:27;;;;;;;0.40;0.40;;;;;;;-6.12;82.91;99358.56;4848719;29;20441;-84
2021/01/12 08:04:25;;;;;;;0.50;0.50;;;;;;;-6.05;82.20;99352.72;4839654;29;20429;-84
2021/01/12 08:07:43;;;;;;;0.60;0.60;;;;;;;-6.06;82.70;99352.81;4847802;29;20461;-83
2021/01/12 08:10:42;;;;;;;0.50;0.50;;;;;;;-5.90;82.40;99353.28;4847709;29;20444;-82
2021/01/12 08:13:20;;;;;;;0.50;0.50;;;;;;;-5.92;82.18;99345.56;4852996;29;20492;-84
2021/01/12 08:24:46;;;;;;;0.60;0.60;;;;;;;-5.73;81.65;99329.22;4902901;29;20441;-83
2021/01/12 08:28:25;;;;;;;0.50;0.50;;;;;;;-5.63;81.27;99327.53;4977958;23;20488;-83
2021/01/12 08:45:19;;;;;;;0.50;0.50;;;;;;;-5.09;80.63;99319.56;4830102;29;20420;-86
2021/01/12 09:02:50;;;;;;;0.47;0.47;;;;;;;-4.51;79.25;99325.91;4847511;29;20420;-86
2021/01/12 09:06:53;;;;;;;0.40;0.40;;;;;;;-4.21;79.42;99327.66;4706129;30;20444;-87
2021/01/12 09:32:32;;;;;;;0.50;0.50;;;;;;;-3.89;79.57;99316.16;4750801;30;20444;-86
2021/01/12 09:36:33;;;;;;;0.50;0.50;;;;;;;-3.84;79.72;99311.34;4705379;30;20567;-86
2021/01/12 09:53:21;;;;;;;0.47;0.47;;;;;;;-3.56;79.75;99251.13;4705654;30;20459;-86
2021/01/12 10:01:32;;;;;;;0.40;0.40;;;;;;;-3.24;81.00;99242.94;4687989;30;20552;-86
2021/01/12 10:18:14;;;;;;;0.40;0.40;;;;;;;-2.90;80.17;99209.16;4832945;29;20486;-86
2021/01/12 10:22:57;;;;;;;0.50;0.50;;;;;;;-2.85;79.15;99201.69;4796154;29;20442;-86
2021/01/12 10:27:03;;;;;;;0.50;0.50;;;;;;;-2.88;79.03;99182.78;4806313;29;20201;-86
2021/01/12 10:48:31;;;;;;;0.40;0.40;;;;;;;-2.40;78.68;99151.03;4778761;30;20216;-86
2021/01/12 10:52:46;;;;;;;0.40;0.40;;;;;;;-2.22;77.92;99149.25;4778186;30;20181;-86
2021/01/12 10:57:09;;;;;;;0.40;0.40;;;;;;;-2.32;77.98;99141.44;4795340;30;20253;-86
2021/01/12 11:05:12;;;;;;;0.40;0.40;;;;;;;-2.31;77.54;99116.88;4742553;30;20226;-85
2021/01/12 11:08:38;;;;;;;0.40;0.40;;;;;;;-2.31;77.26;99109.00;4707294;30;20217;-85
2021/01/12 11:16:46;;;;;;;0.40;0.40;;;;;;;-2.28;77.24;99086.88;4707019;30;20232;-85
2021/01/12 11:24:30;;;;;;;0.40;0.40;;;;;;;-2.00;77.30;99103.31;4723912;30;20240;-85
2021/01/12 11:27:56;;;;;;;0.40;0.40;;;;;;;-1.99;77.37;99082.19;4718313;30;20243;-85
2021/01/12 11:31:09;;;;;;;0.40;0.40;;;;;;;-1.90;77.15;99076.00;4731774;30;20196;-85
2021/01/12 11:38:50;;;;;;;0.40;0.40;;;;;;;-1.84;76.81;99050.94;4705927;30;20256;-86
2021/01/12 11:49:32;;;;;;;0.40;0.40;;;;;;;-1.86;77.67;99055.50;4754797;30;20218;-84
2021/01/12 11:52:43;;;;;;;0.40;0.40;;;;;;;-1.81;77.50;99042.75;4757939;30;20221;-85
2021/01/12 11:59:42;;;;;;;0.50;0.50;;;;;;;-1.54;77.69;99018.13;4760659;30;20214;-85
2021/01/12 12:03:04;;;;;;;0.40;0.40;;;;;;;-1.53;78.40;99012.69;4763001;30;20193;-85
2021/01/12 12:06:11;;;;;;;0.40;0.40;;;;;;;-1.57;76.88;99024.50;4776470;29;20228;-84
2021/01/12 12:09:56;;;;;;;0.40;0.40;;;;;;;-1.56;76.82;99017.44;4773595;30;20190;-84
2021/01/12 12:13:17;;;;;;;0.40;0.40;;;;;;;-1.64;76.45;98991.13;4884978;29;20801;-84
2021/01/12 12:16:38;;;;;;;0.40;0.40;;;;;;;-1.60;76.73;99000.34;4885006;29;20198;-85
2021/01/12 12:27:09;;;;;;;0.50;0.50;;;;;;;-1.62;77.44;98952.38;4904465;29;20163;-83
2021/01/12 12:31:08;;;;;;;0.40;0.40;;;;;;;-1.45;77.69;98952.31;4903090;29;20202;-84
2021/01/12 12:34:54;;;;;;;0.40;0.40;;;;;;;-1.38;77.52;98937.53;4902678;29;20189;-84
2021/01/12 12:38:12;;;;;;;0.40;0.40;;;;;;;-1.62;77.46;98924.31;4897632;29;20201;-84
2021/01/12 12:41:32;;;;;;;0.40;0.40;;;;;;;-1.48;78.44;98910.56;4912432;29;20307;-83
2021/01/12 12:45:22;;;;;;;0.40;0.40;;;;;;;-1.56;77.99;98907.09;4896015;29;20192;-85
2021/01/12 12:49:24;;;;;;;0.30;0.30;;;;;;;-1.58;78.08;98882.78;4884089;29;20190;-84
2021/01/12 12:53:16;;;;;;;0.40;0.40;;;;;;;-1.50;77.79;98896.78;4884354;29;20274;-85
2021/01/12 12:57:02;;;;;;;0.40;0.40;;;;;;;-1.45;78.23;98894.50;4883176;29;20230;-84
2021/01/12 13:00:44;;;;;;;0.40;0.40;;;;;;;-1.48;78.80;98901.84;4885339;29;20215;-84
2021/01/12 13:04:06;;;;;;;0.40;0.40;;;;;;;-1.62;78.94;98887.53;4883906;29;20210;-84
2021/01/12 13:11:09;;;;;;;0.40;0.40;;;;;;;-1.74;79.57;98896.72;4884587;29;20186;-85
2021/01/12 13:21:56;;;;;;;0.40;0.40;;;;;;;-1.82;79.88;98886.19;4883004;29;20167;-85
2021/01/12 13:24:51;;;;;;;0.40;0.40;;;;;;;-1.83;79.83;98893.25;4870502;29;20211;-85
2021/01/12 13:27:48;;;;;;;0.37;0.37;;;;;;;-1.89;79.14;98883.38;4838836;29;20186;-84
2021/01/12 13:34:24;;;;;;;0.40;0.40;;;;;;;-1.97;79.35;98869.41;4922028;29;20189;-84
2021/01/12 13:41:58;;;;;;;0.40;0.40;;;;;;;-1.92;80.03;98869.75;4922357;29;20238;-85
2021/01/12 13:44:56;;;;;;;0.40;0.40;;;;;;;-1.94;80.10;98869.88;4876896;29;20212;-85
2021/01/12 13:48:22;;;;;;;0.40;0.40;;;;;;;-1.97;80.42;98864.97;4875553;29;20189;-84
2021/01/12 13:52:09;;;;;;;0.40;0.40;;;;;;;-1.86;80.93;98866.47;4925754;29;20197;-84
2021/01/12 13:55:46;;;;;;;0.47;0.47;;;;;;;-2.00;81.18;98854.75;4925801;29;20220;-84
2021/01/12 13:58:31;;;;;;;0.40;0.40;;;;;;;-1.92;81.53;98852.19;4924710;29;20197;-85
2021/01/12 14:01:18;;;;;;;0.40;0.40;;;;;;;-2.07;81.59;98843.28;4911590;29;20178;-84
2021/01/12 14:04:24;;;;;;;0.40;0.40;;;;;;;-2.08;82.27;98844.25;4923188;29;20220;-84
2021/01/12 14:11:14;;;;;;;0.40;0.40;;;;;;;-2.12;82.65;98837.66;4923843;29;20215;-84
2021/01/12 14:18:12;;;;;;;0.40;0.40;;;;;;;-2.01;81.72;98844.44;4925873;29;20181;-84
2021/01/12 14:21:32;;;;;;;0.40;0.40;;;;;;;-2.21;82.19;98794.00;4925867;29;20173;-85
2021/01/12 14:29:30;;;;;;;0.50;0.50;;;;;;;-2.04;81.87;98819.31;4886987;29;20276;-85
2021/01/12 14:37:17;;;;;;;0.40;0.40;;;;;;;-2.11;81.47;98805.19;4887164;29;20201;-85
2021/01/12 14:40:55;;;;;;;0.40;0.40;;;;;;;-2.15;81.20;98787.31;4877851;29;20211;-84
2021/01/12 14:44:32;;;;;;;0.40;0.40;;;;;;;-1.97;81.34;98796.72;4856920;29;20179;-85
2021/01/12 14:48:11;;;;;;;0.43;0.43;;;;;;;-2.01;81.61;98790.16;4868031;29;20199;-85
2021/01/12 14:55:55;;;;;;;0.50;0.50;;;;;;;-2.00;81.74;98783.88;4831004;29;20232;-85
2021/01/12 14:59:28;;;;;;;0.40;0.40;;;;;;;-2.12;82.02;98764.19;4842370;29;20236;-85
2021/01/12 15:10:25;;;;;;;0.50;0.50;;;;;;;-1.90;80.75;98745.19;4813305;29;20229;-85
2021/01/12 15:48:13;;;;;;;0.50;0.50;;;;;;;-2.05;85.57;98680.38;4848690;29;20240;-86
2021/01/12 16:01:18;;;;;;;0.50;0.50;;;;;;;-1.91;84.95;98687.59;4849123;29;20256;-87
2021/01/12 16:05:16;;;;;;;0.40;0.40;;;;;;;-1.99;85.22;98683.16;4849256;29;20184;-87
2021/01/12 16:18:04;;;;;;;0.40;0.40;;;;;;;-1.94;85.11;98680.88;4723851;30;20199;-87
2021/01/12 16:29:53;;;;;;;0.40;0.40;;;;;;;-1.88;85.50;98698.59;4689253;30;20189;-87
2021/01/12 16:34:31;;;;;;;0.30;0.30;;;;;;;-1.99;85.78;98648.22;4706185;30;20189;-86
2021/01/12 16:38:56;;;;;;;0.40;0.40;;;;;;;-1.87;85.67;98670.53;4671815;30;20282;-85
2021/01/12 17:04:07;;;;;;;0.40;0.40;;;;;;;-1.88;84.90;98632.16;4688551;30;20202;-86
2021/01/12 17:08:28;;;;;;;0.40;0.40;;;;;;;-1.78;86.11;98653.81;4697299;30;20261;-86
2021/01/12 17:25:34;;;;;;;0.40;0.40;;;;;;;-1.71;87.05;98623.25;4730730;30;20215;-85
2021/01/12 17:42:02;;;;;;;0.40;0.40;;;;;;;-1.64;87.04;98602.41;4743906;30;20248;-84
2021/01/12 18:02:18;;;;;;;0.40;0.40;;;;;;;-1.50;87.73;98585.97;5534703;24;20236;-85
2021/01/12 18:05:01;;;;;;;0.40;0.40;;;;;;;-1.47;88.05;98585.63;4944244;29;20205;-85
2021/01/12 18:08:16;;;;;;;0.40;0.40;;;;;;;-1.35;88.39;98594.75;4943110;29;20208;-85
2021/01/12 18:11:45;;;;;;;0.40;0.40;;;;;;;-1.30;88.18;98599.50;4941290;29;20207;-85
2021/01/12 18:23:39;;;;;;;0.40;0.40;;;;;;;-1.05;88.43;98588.75;4905824;29;20184;-85
2021/01/12 18:27:13;;;;;;;0.40;0.40;;;;;;;-0.96;88.47;98592.16;4901372;29;20216;-85
2021/01/12 18:30:22;;;;;;;0.40;0.40;;;;;;;-0.96;88.37;98571.94;4905292;29;20178;-85
2021/01/12 18:33:18;;;;;;;0.40;0.40;;;;;;;-0.93;88.26;98579.47;4905119;29;20204;-85
2021/01/12 18:36:17;;;;;;;0.40;0.40;;;;;;;-0.92;88.46;98580.31;4886391;29;20215;-83
2021/01/12 18:39:25;;;;;;;0.40;0.40;;;;;;;-0.90;88.53;98567.81;4871120;29;20199;-84
2021/01/12 18:42:10;;;;;;;0.37;0.37;;;;;;;-0.75;88.62;98573.16;4886154;29;20195;-85
2021/01/12 18:45:13;;;;;;;0.40;0.40;;;;;;;-0.65;87.99;98576.38;4885964;29;20190;-85
2021/01/12 18:48:20;;;;;;;0.40;0.40;;;;;;;-0.64;87.74;98568.31;4916106;29;20185;-85
2021/01/12 18:51:23;;;;;;;0.40;0.40;;;;;;;-0.65;87.61;98558.78;4923429;29;20253;-84
2021/01/12 18:54:54;;;;;;;0.40;0.40;;;;;;;-0.63;87.86;98561.25;4923238;29;20212;-84
2021/01/12 18:57:40;;;;;;;0.40;0.40;;;;;;;-0.53;88.04;98562.66;4907037;29;20197;-84
2021/01/12 19:01:02;;;;;;;0.40;0.40;;;;;;;-0.63;87.77;98546.28;4923724;29;20197;-84
2021/01/12 19:03:55;;;;;;;0.40;0.40;;;;;;;-0.62;87.97;98547.91;4906895;29;20215;-84
2021/01/12 19:07:33;;;;;;;0.40;0.40;;;;;;;-0.58;87.84;98553.66;4929912;29;20209;-84
2021/01/12 19:10:51;;;;;;;0.50;0.50;;;;;;;-0.62;88.07;98547.09;4942895;29;20261;-84
2021/01/12 19:13:56;;;;;;;0.40;0.40;;;;;;;-0.58;87.73;98562.34;4929303;29;20181;-84
2021/01/12 19:16:55;;;;;;;0.40;0.40;;;;;;;-0.50;88.08;98548.31;4914261;29;20224;-84
2021/01/12 19:19:57;;;;;;;0.40;0.40;;;;;;;-0.52;87.73;98550.31;4926873;29;20212;-84
2021/01/12 19:22:52;;;;;;;0.37;0.37;;;;;;;-0.56;88.37;98556.94;4942058;29;20252;-84
2021/01/12 19:25:46;;;;;;;0.40;0.40;;;;;;;-0.55;88.47;98567.25;4906657;29;20197;-84
2021/01/12 19:28:34;;;;;;;0.40;0.40;;;;;;;-0.61;88.28;98549.56;4939088;29;20193;-84
2021/01/12 19:31:21;;;;;;;0.40;0.40;;;;;;;-0.48;87.82;98564.75;4912016;29;20197;-84